Time;durP1;ratioP1;P1;durP2;ratioP2;P2;SDS_P1;SDS_P2;PMS_P1;PMS_P2;Temp;Humidity;BMP_temperature;BMP_pressure;BME280_temperature;BME280_humidity;BME280_pressure;Samples;Min_cycle;Max_cycle;Signal;HPM_P1;HPM_P2
2021/07/14 00:01:11;;;;;;;1999.90;999.90;;;;;;;20.35;45.95;100159.81;4830001;29;97573;-73
2021/07/14 00:03:39;;;;;;;1999.90;999.90;;;;;;;20.36;46.34;100160.69;4814788;29;97262;-73
2021/07/14 00:06:06;;;;;;;1999.90;999.90;;;;;;;20.30;45.99;100163.59;4830594;29;97580;-73
2021/07/14 00:08:34;;;;;;;1999.90;999.90;;;;;;;20.16;46.38;100165.75;4829359;29;98266;-72
2021/07/14 00:11:03;;;;;;;1999.90;999.90;;;;;;;20.14;47.12;100168.50;4829905;29;98563;-73
2021/07/14 00:13:34;;;;;;;1999.90;999.90;;;;;;;20.16;46.83;100173.88;4830952;29;97309;-74
2021/07/14 00:24:19;;;;;;;1999.90;999.90;;;;;;;20.22;48.43;100182.72;4859080;28;97001;-72
2021/07/14 00:26:48;;;;;;;1999.90;999.90;;;;;;;20.21;48.88;100185.47;4827021;29;97163;-73
2021/07/14 00:29:16;;;;;;;1999.90;999.90;;;;;;;20.22;48.51;100189.91;4823962;29;99744;-73
2021/07/14 00:31:44;;;;;;;1999.90;999.90;;;;;;;20.22;48.38;100179.09;4828687;29;97246;-72
2021/07/14 00:34:12;;;;;;;1999.90;999.90;;;;;;;20.16;48.51;100181.97;4828091;29;97906;-73
2021/07/14 00:36:40;;;;;;;1999.90;999.90;;;;;;;20.15;48.55;100174.81;4829538;29;97470;-73
2021/07/14 00:39:08;;;;;;;1999.90;999.90;;;;;;;20.15;49.07;100167.59;4812331;29;98855;-72
2021/07/14 00:41:35;;;;;;;1999.90;999.90;;;;;;;20.14;49.40;100176.63;4828946;29;98711;-73
2021/07/14 00:44:05;;;;;;;1999.90;999.90;;;;;;;20.13;49.08;100163.16;4828603;29;98026;-73
2021/07/14 00:46:33;;;;;;;1999.90;999.90;;;;;;;20.09;49.30;100156.97;4830608;29;97314;-72
2021/07/14 00:49:02;;;;;;;1999.90;999.90;;;;;;;20.05;49.70;100152.56;4829399;29;97645;-73
2021/07/14 00:51:30;;;;;;;1999.90;999.90;;;;;;;20.04;50.18;100155.31;4827031;29;98497;-72
2021/07/14 00:53:59;;;;;;;1999.90;999.90;;;;;;;20.02;50.72;100157.16;4828548;29;97010;-72
2021/07/14 00:56:27;;;;;;;1999.90;999.90;;;;;;;20.01;50.61;100161.66;4829177;29;97215;-73
2021/07/14 00:58:56;;;;;;;1999.90;999.90;;;;;;;20.00;50.36;100176.13;4828320;29;100597;-73
2021/07/14 01:01:27;;;;;;;1999.90;999.90;;;;;;;19.98;50.83;100188.78;4829348;29;98937;-73
2021/07/14 01:04:01;;;;;;;1999.90;999.90;;;;;;;19.95;51.11;100192.47;4830066;29;97456;-73
2021/07/14 01:06:34;;;;;;;1999.90;999.90;;;;;;;19.94;51.19;100189.78;4828772;29;97496;-73
2021/07/14 01:09:09;;;;;;;1999.90;999.90;;;;;;;19.90;51.55;100186.25;4826693;29;97793;-72
2021/07/14 01:11:38;;;;;;;1999.90;999.90;;;;;;;19.89;51.00;100170.09;4829220;29;98719;-73
2021/07/14 01:14:09;;;;;;;1999.90;999.90;;;;;;;19.85;51.05;100181.88;4827780;29;96950;-73
2021/07/14 01:16:42;;;;;;;1999.90;999.90;;;;;;;19.81;51.36;100183.78;4819090;29;97663;-73
2021/07/14 01:19:21;;;;;;;1999.90;999.90;;;;;;;19.77;51.62;100179.38;4826949;29;98360;-72
2021/07/14 01:21:51;;;;;;;1999.90;999.90;;;;;;;19.73;51.26;100183.13;4830044;29;98165;-73
2021/07/14 01:24:23;;;;;;;1999.90;999.90;;;;;;;19.67;51.31;100177.88;4829858;29;97437;-73
2021/07/14 01:27:10;;;;;;;1999.90;999.90;;;;;;;19.34;52.45;100177.81;4814253;29;97041;-73
2021/07/14 01:29:43;;;;;;;1999.90;999.90;;;;;;;19.49;52.30;100172.03;4828253;29;98900;-72
2021/07/14 01:32:12;;;;;;;1999.90;999.90;;;;;;;19.51;52.04;100175.59;4828618;29;97701;-73
2021/07/14 01:34:42;;;;;;;1999.90;999.90;;;;;;;19.11;52.54;100175.66;4829896;29;97602;-72
2021/07/14 01:37:11;;;;;;;1999.90;999.90;;;;;;;18.92;52.74;100175.19;4831089;29;97313;-72
2021/07/14 01:39:40;;;;;;;1999.90;999.90;;;;;;;18.78;52.83;100177.31;4834101;29;97901;-72
2021/07/14 01:42:10;;;;;;;1999.90;999.90;;;;;;;18.66;53.33;100177.50;4833044;29;97638;-73
2021/07/14 01:44:38;;;;;;;1999.90;999.90;;;;;;;18.94;53.25;100173.34;4845828;29;96838;-73
2021/07/14 01:47:06;;;;;;;1999.90;999.90;;;;;;;19.01;53.44;100169.56;4833173;29;97150;-72
2021/07/14 01:49:35;;;;;;;1999.90;999.90;;;;;;;18.69;53.68;100157.75;4847728;29;99750;-73
2021/07/14 01:52:05;;;;;;;1999.90;999.90;;;;;;;18.57;53.85;100169.63;4830589;29;99842;-72
2021/07/14 01:54:33;;;;;;;1999.90;999.90;;;;;;;18.85;53.51;100161.88;4829774;29;97299;-71
2021/07/14 01:57:02;;;;;;;1999.90;999.90;;;;;;;18.91;53.36;100168.03;4833250;29;96979;-73
2021/07/14 01:59:33;;;;;;;1999.90;999.90;;;;;;;18.92;53.71;100164.38;4832889;29;96836;-73
2021/07/14 02:02:04;;;;;;;1999.90;999.90;;;;;;;18.93;53.88;100159.91;4829848;29;97901;-73
2021/07/14 02:04:33;;;;;;;1999.90;999.90;;;;;;;18.94;53.91;100167.03;4831081;29;97008;-73
2021/07/14 02:07:05;;;;;;;1999.90;999.90;;;;;;;18.93;54.17;100171.53;4830929;29;97748;-72
2021/07/14 02:09:35;;;;;;;1999.90;999.90;;;;;;;18.96;54.13;100165.22;4832766;29;97979;-73
2021/07/14 02:12:05;;;;;;;1999.90;999.90;;;;;;;18.96;53.96;100160.72;4831383;29;98536;-72
2021/07/14 02:14:37;;;;;;;1999.90;999.90;;;;;;;18.93;53.90;100144.56;4832915;29;97628;-73
2021/07/14 02:17:08;;;;;;;1999.90;999.90;;;;;;;18.93;54.37;100143.72;4832077;29;96822;-73
2021/07/14 02:19:37;;;;;;;1999.90;999.90;;;;;;;18.94;54.05;100142.78;4832262;28;98139;-73
2021/07/14 02:22:05;;;;;;;1999.90;999.90;;;;;;;18.96;54.18;100154.41;4831962;29;98016;-72
2021/07/14 02:24:34;;;;;;;1999.90;999.90;;;;;;;18.96;54.50;100149.03;4830560;29;96984;-73
2021/07/14 02:27:06;;;;;;;1999.90;999.90;;;;;;;18.97;54.39;100148.97;4832126;29;96892;-73
2021/07/14 02:29:36;;;;;;;1999.90;999.90;;;;;;;18.96;54.36;100149.03;4814816;29;100001;-72
2021/07/14 02:32:05;;;;;;;1999.90;999.90;;;;;;;18.97;54.42;100146.28;4829526;29;97103;-73
2021/07/14 02:34:33;;;;;;;1999.90;999.90;;;;;;;18.97;54.38;100148.97;4829770;29;97391;-72
2021/07/14 02:37:03;;;;;;;1999.90;999.90;;;;;;;18.96;54.00;100149.91;4829285;29;97879;-72
2021/07/14 02:39:32;;;;;;;1999.90;999.90;;;;;;;18.97;53.72;100150.78;4830775;29;99732;-72
2021/07/14 02:42:05;;;;;;;1999.90;999.90;;;;;;;18.98;53.94;100149.88;4830172;29;99225;-72
2021/07/14 02:44:39;;;;;;;1999.90;999.90;;;;;;;18.96;53.54;100146.34;4831608;29;97526;-72
2021/07/14 02:47:08;;;;;;;1999.90;999.90;;;;;;;18.94;53.77;100154.47;4831164;29;97393;-72
2021/07/14 02:49:38;;;;;;;1999.90;999.90;;;;;;;18.91;53.52;100168.03;4860103;28;97817;-73
2021/07/14 02:52:08;;;;;;;1999.90;999.90;;;;;;;18.92;53.64;100172.47;4830559;29;97647;-72
2021/07/14 02:54:39;;;;;;;1999.90;999.90;;;;;;;18.93;53.80;100159.91;4830940;29;96998;-73
2021/07/14 02:57:08;;;;;;;1999.90;999.90;;;;;;;18.90;53.60;100162.63;4833530;28;97042;-72
2021/07/14 02:59:38;;;;;;;1999.90;999.90;;;;;;;18.89;53.77;100160.88;4831877;29;98738;-73
2021/07/14 03:02:07;;;;;;;1999.90;999.90;;;;;;;18.86;54.15;100169.91;4860364;28;101254;-74
2021/07/14 03:04:36;;;;;;;1999.90;999.90;;;;;;;18.84;54.13;100181.66;4831436;29;97645;-73
2021/07/14 03:07:07;;;;;;;1999.90;999.90;;;;;;;18.82;53.77;100183.50;4830166;29;97109;-73
2021/07/14 03:09:38;;;;;;;1999.90;999.90;;;;;;;18.79;53.59;100172.78;4831575;29;97303;-73
2021/07/14 03:12:08;;;;;;;1999.90;999.90;;;;;;;18.75;53.88;100171.97;4831926;29;98482;-73
2021/07/14 03:14:39;;;;;;;1999.90;999.90;;;;;;;18.71;53.74;100170.28;4830455;29;97730;-73
2021/07/14 03:17:07;;;;;;;1999.90;999.90;;;;;;;18.67;53.98;100167.63;4830278;29;97257;-73
2021/07/14 03:19:36;;;;;;;1999.90;999.90;;;;;;;18.64;54.18;100157.78;4830874;29;97261;-73
2021/07/14 03:22:04;;;;;;;1999.90;999.90;;;;;;;18.64;53.75;100148.84;4860386;28;97505;-73
2021/07/14 03:24:33;;;;;;;1999.90;999.90;;;;;;;18.64;54.05;100138.94;4830027;29;97280;-73
2021/07/14 03:27:05;;;;;;;1999.90;999.90;;;;;;;18.64;53.89;100135.38;4830409;29;97098;-72
2021/07/14 03:29:33;;;;;;;1999.90;999.90;;;;;;;18.62;54.15;100135.38;4830252;29;98956;-73
2021/07/14 03:32:03;;;;;;;1999.90;999.90;;;;;;;18.65;53.52;100142.50;4830888;29;97241;-73
2021/07/14 03:34:32;;;;;;;1999.90;999.90;;;;;;;18.63;53.85;100150.63;4815066;29;97851;-73
2021/07/14 03:37:04;;;;;;;1999.90;999.90;;;;;;;18.64;53.85;100156.94;4835476;28;96833;-73
2021/07/14 03:39:32;;;;;;;1999.90;999.90;;;;;;;18.64;54.06;100162.31;4831058;29;97994;-72
2021/07/14 03:42:01;;;;;;;1999.90;999.90;;;;;;;18.64;54.01;100170.41;4827227;29;98752;-72
2021/07/14 03:44:29;;;;;;;1999.90;999.90;;;;;;;18.62;54.21;100169.53;4828886;29;98193;-72
2021/07/14 03:46:57;;;;;;;1999.90;999.90;;;;;;;18.63;54.58;100176.69;4831079;29;96857;-72
2021/07/14 03:49:27;;;;;;;1999.90;999.90;;;;;;;18.65;54.53;100174.84;4830603;29;98087;-72
2021/07/14 03:51:56;;;;;;;1999.90;999.90;;;;;;;18.66;54.52;100172.13;4830860;29;97859;-71
2021/07/14 03:54:27;;;;;;;1999.90;999.90;;;;;;;18.70;54.31;100178.38;4857848;28;98109;-73
2021/07/14 03:56:54;;;;;;;1999.90;999.90;;;;;;;18.68;54.54;100185.56;4831665;29;97331;-72
2021/07/14 03:59:23;;;;;;;1999.90;999.90;;;;;;;18.67;54.57;100194.59;4829419;29;98830;-71
2021/07/14 04:01:52;;;;;;;1999.90;999.90;;;;;;;18.66;54.77;100203.59;4855017;28;99240;-72
2021/07/14 04:04:21;;;;;;;1999.90;999.90;;;;;;;18.67;54.56;100189.19;4813793;29;97215;-72
2021/07/14 04:06:58;;;;;;;1999.90;999.90;;;;;;;18.67;54.98;100184.69;4830131;29;97349;-72
2021/07/14 04:09:26;;;;;;;1999.90;999.90;;;;;;;18.69;55.12;100172.13;4825578;29;97757;-72
2021/07/14 04:11:56;;;;;;;1999.90;999.90;;;;;;;18.71;54.58;100164.00;4813907;29;99470;-73
2021/07/14 04:14:26;;;;;;;1999.90;999.90;;;;;;;18.72;55.20;100163.06;4829724;29;97921;-73
2021/07/14 04:16:54;;;;;;;1999.90;999.90;;;;;;;18.76;54.86;100167.47;4829898;29;97264;-72
2021/07/14 04:19:23;;;;;;;1999.90;999.90;;;;;;;18.77;54.46;100162.03;4860521;28;99946;-73
2021/07/14 04:21:52;;;;;;;1999.90;999.90;;;;;;;18.79;54.72;100173.66;4830290;29;97972;-73
2021/07/14 04:24:20;;;;;;;1999.90;999.90;;;;;;;18.81;54.88;100165.53;4829464;29;97370;-72
2021/07/14 04:26:50;;;;;;;1999.90;999.90;;;;;;;18.79;54.63;100168.28;4845381;29;97517;-73
2021/07/14 04:29:18;;;;;;;1999.90;999.90;;;;;;;18.80;54.66;100180.84;4823382;29;102438;-73
2021/07/14 04:31:46;;;;;;;1999.90;999.90;;;;;;;18.75;54.26;100184.56;4828603;29;98813;-73
2021/07/14 04:34:14;;;;;;;1999.90;999.90;;;;;;;18.74;54.42;100174.69;4828049;29;97360;-72
2021/07/14 04:36:42;;;;;;;1999.90;999.90;;;;;;;18.78;54.46;100176.41;4828792;29;97839;-74
2021/07/14 04:39:12;;;;;;;1999.90;999.90;;;;;;;18.78;54.11;100177.31;4845110;29;97993;-74
2021/07/14 04:41:40;;;;;;;1999.90;999.90;;;;;;;18.78;54.15;100184.50;4830220;29;97655;-74
2021/07/14 04:44:10;;;;;;;1999.90;999.90;;;;;;;18.75;54.32;100181.88;4829207;29;97380;-74
2021/07/14 04:46:38;;;;;;;1999.90;999.90;;;;;;;18.77;54.60;100190.78;4827554;29;97358;-74
2021/07/14 04:49:08;;;;;;;1999.90;999.90;;;;;;;18.77;54.71;100188.09;4827013;29;99340;-74
2021/07/14 04:51:36;;;;;;;1999.90;999.90;;;;;;;18.77;54.25;100182.69;4830886;29;97815;-74
2021/07/14 04:54:04;;;;;;;1999.90;999.90;;;;;;;18.76;54.42;100183.63;4859611;28;96915;-74
2021/07/14 04:56:33;;;;;;;1999.90;999.90;;;;;;;18.74;54.52;100169.31;4830111;29;97168;-75
2021/07/14 04:59:01;;;;;;;1999.90;999.90;;;;;;;18.74;54.23;100163.91;4829487;29;98828;-74
2021/07/14 05:01:30;;;;;;;1999.90;999.90;;;;;;;18.72;54.40;100169.34;4829221;29;100265;-74
2021/07/14 05:03:58;;;;;;;1999.90;999.90;;;;;;;18.74;54.86;100178.28;4859929;28;97795;-75
2021/07/14 05:06:27;;;;;;;1999.90;999.90;;;;;;;18.76;54.73;100194.41;4827733;29;96871;-74
2021/07/14 05:08:55;;;;;;;1999.90;999.90;;;;;;;18.78;54.72;100198.88;4828747;29;99811;-75
2021/07/14 05:11:23;;;;;;;1999.90;999.90;;;;;;;18.77;54.85;100201.56;4844231;28;98566;-74
2021/07/14 05:13:51;;;;;;;1999.90;999.90;;;;;;;18.78;54.64;100206.06;4831136;29;97637;-75
2021/07/14 05:16:19;;;;;;;1999.90;999.90;;;;;;;18.78;54.75;100193.47;4832828;29;98041;-75
2021/07/14 05:18:47;;;;;;;1999.90;999.90;;;;;;;18.79;54.75;100189.84;4863047;28;100155;-74
2021/07/14 05:21:15;;;;;;;1999.90;999.90;;;;;;;18.82;54.64;100188.91;4847308;29;99500;-74
2021/07/14 05:23:42;;;;;;;1999.90;999.90;;;;;;;18.81;54.56;100185.31;4815448;29;97610;-74
2021/07/14 05:26:11;;;;;;;1999.90;999.90;;;;;;;18.81;54.37;100185.31;4831741;29;97843;-74
2021/07/14 05:28:39;;;;;;;1999.90;999.90;;;;;;;18.81;54.52;100197.91;4847471;29;99777;-75
2021/07/14 05:31:08;;;;;;;1999.90;999.90;;;;;;;18.77;54.48;100199.78;4862325;28;97637;-76
2021/07/14 05:33:36;;;;;;;1999.90;999.90;;;;;;;18.80;54.38;100193.44;4832087;29;97046;-76
2021/07/14 05:36:04;;;;;;;1999.90;999.90;;;;;;;18.84;54.35;100197.84;4833196;29;97114;-74
2021/07/14 05:38:32;;;;;;;1999.90;999.90;;;;;;;18.83;54.45;100201.44;4831857;29;97897;-75
2021/07/14 05:41:00;;;;;;;1999.90;999.90;;;;;;;18.85;54.66;100202.31;4831135;29;98946;-75
2021/07/14 05:43:28;;;;;;;1999.90;999.90;;;;;;;18.87;54.52;100203.16;4833004;29;98109;-74
2021/07/14 05:45:57;;;;;;;1999.90;999.90;;;;;;;18.90;54.30;100203.97;4833122;29;96972;-73
2021/07/14 05:48:26;;;;;;;1999.90;999.90;;;;;;;18.95;54.61;100210.16;4832611;29;97770;-75
2021/07/14 05:50:55;;;;;;;1999.90;999.90;;;;;;;18.95;54.57;100206.59;4834487;29;97579;-75
2021/07/14 05:53:23;;;;;;;1999.90;999.90;;;;;;;18.97;54.45;100216.41;4842155;28;97523;-76
2021/07/14 05:55:51;;;;;;;1999.90;999.90;;;;;;;18.97;54.35;100212.81;4831979;29;97572;-75
2021/07/14 05:58:19;;;;;;;1999.90;999.90;;;;;;;18.98;54.59;100231.69;4830789;29;98678;-75
2021/07/14 06:00:47;;;;;;;1999.90;999.90;;;;;;;18.99;54.31;100237.94;4831604;29;100267;-75
2021/07/14 06:03:15;;;;;;;1999.90;999.90;;;;;;;18.99;54.03;100225.34;4816425;29;97250;-75
2021/07/14 06:05:44;;;;;;;1999.90;999.90;;;;;;;19.00;53.78;100228.94;4831758;29;96784;-74
2021/07/14 06:08:12;;;;;;;1999.90;999.90;;;;;;;19.00;54.11;100243.31;4845690;29;100170;-75
2021/07/14 06:10:39;;;;;;;1999.90;999.90;;;;;;;19.02;53.81;100235.19;4861376;28;100231;-74
2021/07/14 06:13:10;;;;;;;1999.90;999.90;;;;;;;19.05;53.61;100237.81;4861878;28;97049;-74
2021/07/14 06:15:41;;;;;;;1999.90;999.90;;;;;;;19.02;53.99;100229.78;4830145;29;97049;-76
2021/07/14 06:18:08;;;;;;;1999.90;999.90;;;;;;;19.03;54.01;100234.25;4831823;29;99775;-76
2021/07/14 06:20:37;;;;;;;1999.90;999.90;;;;;;;19.07;53.67;100245.84;4822730;29;99259;-75
2021/07/14 06:23:06;;;;;;;1999.90;999.90;;;;;;;19.10;53.65;100259.28;4845432;29;97241;-74
2021/07/14 06:25:33;;;;;;;1999.90;999.90;;;;;;;19.12;53.90;100261.03;4833144;29;97218;-74
2021/07/14 06:28:02;;;;;;;1999.90;999.90;;;;;;;19.15;53.32;100258.28;4843170;29;100171;-77
2021/07/14 06:30:30;;;;;;;1999.90;999.90;;;;;;;19.16;53.47;100249.25;4826820;29;99684;-74
2021/07/14 06:32:58;;;;;;;1999.90;999.90;;;;;;;19.20;53.48;100245.56;4843542;28;97278;-74
2021/07/14 06:35:26;;;;;;;1999.90;999.90;;;;;;;19.23;53.52;100240.09;4829613;29;97204;-74
2021/07/14 06:37:54;;;;;;;1999.90;999.90;;;;;;;19.28;53.77;100221.09;4828507;29;100105;-74
2021/07/14 06:40:23;;;;;;;1999.90;999.90;;;;;;;19.32;53.69;100217.44;4830972;29;97768;-74
2021/07/14 06:42:51;;;;;;;1999.90;999.90;;;;;;;19.36;53.39;100219.13;4832033;29;97962;-74
2021/07/14 06:45:23;;;;;;;1999.90;999.90;;;;;;;19.38;53.40;100226.28;4859794;28;97472;-73
2021/07/14 06:47:55;;;;;;;1999.90;999.90;;;;;;;19.43;53.21;100234.25;4835826;28;98943;-74
2021/07/14 06:50:23;;;;;;;1999.90;999.90;;;;;;;19.47;52.99;100230.56;4832961;29;97981;-74
2021/07/14 06:52:51;;;;;;;1999.90;999.90;;;;;;;19.52;52.94;100223.22;4803366;29;97920;-73
2021/07/14 06:55:19;;;;;;;1999.90;999.90;;;;;;;19.52;53.33;100221.44;4830877;29;97448;-74
2021/07/14 06:57:48;;;;;;;1999.90;999.90;;;;;;;19.53;53.09;100225.91;4830674;29;98273;-74
2021/07/14 07:00:16;;;;;;;1999.90;999.90;;;;;;;19.56;53.44;100227.63;4830509;29;98760;-74
2021/07/14 07:02:44;;;;;;;1999.90;999.90;;;;;;;19.58;53.12;100226.69;4830804;29;96989;-74
2021/07/14 07:05:12;;;;;;;1999.90;999.90;;;;;;;19.61;53.39;100226.59;4830117;29;97343;-74
2021/07/14 07:07:40;;;;;;;1999.90;999.90;;;;;;;19.65;53.11;100235.50;4860869;28;97718;-76
2021/07/14 07:10:09;;;;;;;1999.90;999.90;;;;;;;19.66;53.14;100224.66;4830957;29;97676;-73
2021/07/14 07:12:37;;;;;;;1999.90;999.90;;;;;;;19.69;53.24;100227.31;4829076;29;97371;-74
2021/07/14 07:15:13;;;;;;;1999.90;999.90;;;;;;;19.71;52.88;100236.25;4850303;28;97319;-74
2021/07/14 07:17:41;;;;;;;1999.90;999.90;;;;;;;19.71;52.61;100228.16;4843904;29;97932;-74
2021/07/14 07:20:10;;;;;;;1999.90;999.90;;;;;;;19.75;52.86;100232.56;4829743;29;97834;-74
2021/07/14 07:22:38;;;;;;;1999.90;999.90;;;;;;;19.77;52.29;100235.22;4829897;29;97436;-73
2021/07/14 07:25:06;;;;;;;1999.90;999.90;;;;;;;19.78;52.73;100251.38;4829826;29;97588;-74
2021/07/14 07:27:36;;;;;;;1999.90;999.90;;;;;;;19.80;52.44;100254.03;4830852;29;98158;-74
2021/07/14 07:30:07;;;;;;;1999.90;999.90;;;;;;;19.79;52.21;100253.13;4830701;29;97628;-74
2021/07/14 07:32:36;;;;;;;1999.90;999.90;;;;;;;19.79;52.26;100263.94;4832170;29;97122;-74
2021/07/14 07:35:04;;;;;;;1999.90;999.90;;;;;;;19.78;52.23;100266.69;4828357;29;96999;-74
2021/07/14 07:37:32;;;;;;;1999.90;999.90;;;;;;;19.80;52.64;100270.22;4830513;29;97169;-74
2021/07/14 07:40:00;;;;;;;1999.90;999.90;;;;;;;19.82;52.63;100273.78;4831323;29;97869;-74
2021/07/14 07:42:28;;;;;;;1999.90;999.90;;;;;;;19.82;52.73;100282.78;4830717;29;97638;-74
2021/07/14 07:44:56;;;;;;;1999.90;999.90;;;;;;;19.85;52.85;100273.69;4831985;29;97926;-75
2021/07/14 07:47:24;;;;;;;1999.90;999.90;;;;;;;19.83;52.53;100276.44;4813101;29;98228;-75
2021/07/14 07:49:53;;;;;;;1999.90;999.90;;;;;;;19.83;52.80;100267.44;4829804;29;99274;-74
2021/07/14 07:52:26;;;;;;;1999.90;999.90;;;;;;;19.82;52.81;100263.88;4828678;29;97056;-74
2021/07/14 07:54:55;;;;;;;1999.90;999.90;;;;;;;19.81;52.76;100259.38;4829791;29;97520;-74
2021/07/14 07:57:23;;;;;;;1999.90;999.90;;;;;;;19.80;52.92;100257.63;4830549;29;96971;-75
2021/07/14 07:59:52;;;;;;;1999.90;999.90;;;;;;;19.84;52.67;100266.53;4830163;29;99316;-73
2021/07/14 08:02:20;;;;;;;1999.90;999.90;;;;;;;19.82;52.83;100260.28;4829398;29;97953;-74
2021/07/14 08:04:48;;;;;;;1999.90;999.90;;;;;;;19.82;52.87;100257.59;4860495;28;97471;-74
2021/07/14 08:07:17;;;;;;;1999.90;999.90;;;;;;;19.81;52.97;100250.38;4829103;29;101026;-75
2021/07/14 08:09:45;;;;;;;1999.90;999.90;;;;;;;19.80;53.34;100259.44;4814106;29;100574;-74
2021/07/14 08:12:12;;;;;;;1999.90;999.90;;;;;;;19.80;52.94;100264.84;4830530;29;97464;-74
2021/07/14 08:14:40;;;;;;;1999.90;999.90;;;;;;;19.80;53.02;100271.13;4828619;29;97984;-74
2021/07/14 08:17:08;;;;;;;1999.90;999.90;;;;;;;19.78;52.91;100264.88;4830255;29;98140;-74
2021/07/14 08:19:35;;;;;;;1999.90;999.90;;;;;;;19.78;53.41;100272.97;4829702;29;97874;-74
2021/07/14 08:22:04;;;;;;;1999.90;999.90;;;;;;;19.74;53.01;100271.28;4829882;29;97143;-74
2021/07/14 08:24:33;;;;;;;1999.90;999.90;;;;;;;19.72;53.22;100254.22;4858893;28;98706;-74
2021/07/14 08:27:00;;;;;;;1999.90;999.90;;;;;;;19.70;53.22;100264.16;4828546;29;97653;-74
2021/07/14 08:29:37;;;;;;;1999.90;999.90;;;;;;;19.66;53.13;100272.41;4831050;29;98049;-74
2021/07/14 08:32:05;;;;;;;1999.90;999.90;;;;;;;19.64;52.94;100274.25;4823272;29;98839;-74
2021/07/14 08:34:33;;;;;;;1999.90;999.90;;;;;;;19.62;53.32;100260.78;4827168;29;97417;-75
2021/07/14 08:37:01;;;;;;;1999.90;999.90;;;;;;;19.61;52.89;100268.94;4859127;28;99223;-74
2021/07/14 08:39:28;;;;;;;1999.90;999.90;;;;;;;19.59;52.97;100284.25;4829208;29;98171;-76
2021/07/14 08:42:01;;;;;;;1999.90;999.90;;;;;;;19.56;53.48;100279.81;4828689;29;97224;-74
2021/07/14 08:44:29;;;;;;;1999.90;999.90;;;;;;;19.57;53.16;100273.47;4859491;28;97649;-73
2021/07/14 08:46:58;;;;;;;1999.90;999.90;;;;;;;19.55;53.80;100269.97;4829598;29;97953;-74
2021/07/14 08:49:27;;;;;;;1999.90;999.90;;;;;;;19.56;53.54;100271.72;4829578;29;98627;-74
2021/07/14 08:51:55;;;;;;;1999.90;999.90;;;;;;;19.58;53.82;100279.78;4830977;29;96885;-74
2021/07/14 08:54:23;;;;;;;1999.90;999.90;;;;;;;19.59;53.67;100285.13;4828461;29;97399;-75
2021/07/14 08:56:51;;;;;;;1999.90;999.90;;;;;;;19.61;53.45;100288.69;4830359;29;98066;-74
2021/07/14 08:59:21;;;;;;;1999.90;999.90;;;;;;;19.62;53.65;100282.38;4859212;28;99351;-74
2021/07/14 09:01:49;;;;;;;1999.90;999.90;;;;;;;19.63;53.42;100291.34;4843832;29;97018;-75
2021/07/14 09:04:17;;;;;;;1999.90;999.90;;;;;;;19.63;53.25;100284.13;4829298;29;97416;-74
2021/07/14 09:06:45;;;;;;;1999.90;999.90;;;;;;;19.64;53.37;100291.34;4827784;29;99157;-74
2021/07/14 09:09:14;;;;;;;1999.90;999.90;;;;;;;19.64;53.41;100287.75;4830356;29;97737;-74
2021/07/14 09:11:50;;;;;;;1999.90;999.90;;;;;;;19.66;53.37;100296.69;4813339;29;97394;-74
2021/07/14 09:14:31;;;;;;;1999.90;999.90;;;;;;;19.69;52.90;100294.81;4828564;29;98260;-74
2021/07/14 09:17:00;;;;;;;1999.90;999.90;;;;;;;19.69;53.43;100294.81;4828985;29;99251;-73
2021/07/14 09:19:30;;;;;;;1999.90;999.90;;;;;;;19.70;53.13;100293.00;4843703;29;97541;-74
2021/07/14 09:21:59;;;;;;;1999.90;999.90;;;;;;;19.72;52.95;100289.31;4830010;29;97443;-75
2021/07/14 09:24:29;;;;;;;1999.90;999.90;;;;;;;19.75;53.30;100283.88;4828495;29;96833;-74
2021/07/14 09:26:57;;;;;;;1999.90;999.90;;;;;;;19.78;53.59;100272.97;4858716;28;98457;-74
2021/07/14 09:29:25;;;;;;;1999.90;999.90;;;;;;;19.82;53.29;100287.28;4830344;29;98733;-74
2021/07/14 09:31:55;;;;;;;1999.90;999.90;;;;;;;19.81;53.32;100282.78;4828235;29;96934;-74
2021/07/14 09:34:28;;;;;;;1999.90;999.90;;;;;;;19.84;53.62;100286.34;4828612;29;97348;-74
2021/07/14 09:36:57;;;;;;;1999.90;999.90;;;;;;;19.86;53.29;100284.47;4843686;29;97998;-74
2021/07/14 09:39:43;;;;;;;1999.90;999.90;;;;;;;19.88;53.71;100282.59;4858709;28;97633;-74
2021/07/14 09:42:12;;;;;;;1999.90;999.90;;;;;;;19.88;53.68;100279.91;4836044;29;97362;-74
2021/07/14 09:44:45;;;;;;;1999.90;999.90;;;;;;;19.90;53.47;100278.06;4828408;29;97244;-74
2021/07/14 09:47:18;;;;;;;1999.90;999.90;;;;;;;19.92;52.96;100288.81;4858958;28;97624;-74
2021/07/14 09:49:46;;;;;;;1999.90;999.90;;;;;;;19.90;53.33;100285.31;4830284;29;98526;-74
2021/07/14 09:52:16;;;;;;;1999.90;999.90;;;;;;;19.92;53.11;100296.91;4828100;29;98576;-74
2021/07/14 09:54:44;;;;;;;1999.90;999.90;;;;;;;19.94;53.13;100295.09;4828663;29;96819;-74
2021/07/14 09:57:15;;;;;;;1999.90;999.90;;;;;;;19.94;52.92;100296.00;4815465;29;98779;-74
2021/07/14 09:59:45;;;;;;;1999.90;999.90;;;;;;;19.92;52.97;100281.66;4829453;29;99004;-74
2021/07/14 10:02:16;;;;;;;1999.90;999.90;;;;;;;19.92;52.55;100284.34;4832283;29;97237;-74
2021/07/14 10:04:46;;;;;;;1999.90;999.90;;;;;;;19.91;52.80;100293.34;4831233;29;97110;-75
2021/07/14 10:07:15;;;;;;;1999.90;999.90;;;;;;;19.89;52.04;100287.09;4831407;29;97710;-74
2021/07/14 10:09:44;;;;;;;1999.90;999.90;;;;;;;19.89;52.46;100294.31;4814705;29;100427;-74
2021/07/14 10:12:26;;;;;;;1999.90;999.90;;;;;;;19.91;52.47;100311.38;4860452;28;97373;-75
2021/07/14 10:14:55;;;;;;;1999.90;999.90;;;;;;;19.93;52.39;100314.94;4861818;28;97075;-75
2021/07/14 10:17:41;;;;;;;1999.90;999.90;;;;;;;19.95;52.54;100321.22;4862117;28;99402;-75
2021/07/14 10:20:27;;;;;;;1999.90;999.90;;;;;;;19.95;52.30;100324.81;4830140;29;98168;-75
2021/07/14 10:22:56;;;;;;;1999.90;999.90;;;;;;;19.97;52.88;100327.47;4846514;29;97572;-74
2021/07/14 10:25:25;;;;;;;1999.90;999.90;;;;;;;19.98;52.67;100332.81;4831841;29;97099;-75
2021/07/14 10:27:55;;;;;;;1999.90;999.90;;;;;;;19.97;52.42;100333.72;4832014;29;98626;-74
2021/07/14 10:30:24;;;;;;;1999.90;999.90;;;;;;;19.99;52.18;100331.03;4830094;29;101054;-74
2021/07/14 10:32:53;;;;;;;1999.90;999.90;;;;;;;19.99;51.85;100331.03;4826879;29;98798;-74
2021/07/14 10:35:23;;;;;;;1999.90;999.90;;;;;;;19.96;51.65;100326.56;4844421;29;97467;-75
2021/07/14 10:38:15;;;;;;;1999.90;999.90;;;;;;;19.94;51.58;100333.81;4829944;29;98013;-76
2021/07/14 10:40:45;;;;;;;1999.90;999.90;;;;;;;19.93;51.51;100339.25;4832287;29;97576;-76
2021/07/14 10:43:16;;;;;;;1999.90;999.90;;;;;;;19.92;51.72;100349.16;4833284;29;97924;-77
2021/07/14 10:45:46;;;;;;;1999.90;999.90;;;;;;;19.92;51.87;100349.16;4830829;29;97118;-76
2021/07/14 10:48:17;;;;;;;1999.90;999.90;;;;;;;19.92;51.89;100351.88;4828297;29;99263;-75
2021/07/14 10:50:47;;;;;;;1999.90;999.90;;;;;;;19.89;51.39;100354.63;4830457;29;98834;-75
2021/07/14 10:53:21;;;;;;;1999.90;999.90;;;;;;;19.85;51.40;100355.59;4830915;29;96875;-74
2021/07/14 10:55:50;;;;;;;1999.90;999.90;;;;;;;19.82;51.43;100355.69;4829676;29;97110;-74
2021/07/14 10:58:19;;;;;;;1999.90;999.90;;;;;;;19.79;51.44;100358.44;4830501;29;98561;-75
2021/07/14 11:00:48;;;;;;;1999.90;999.90;;;;;;;19.77;51.35;100351.31;4830300;29;99306;-74
2021/07/14 11:03:40;;;;;;;1999.90;999.90;;;;;;;19.73;51.87;100355.00;4831345;29;97919;-75
2021/07/14 11:06:10;;;;;;;1999.90;999.90;;;;;;;19.72;51.44;100354.13;4830379;29;97449;-75